Time;durP1;ratioP1;P1;durP2;ratioP2;P2;SDS_P1;SDS_P2;PMS_P1;PMS_P2;Temp;Humidity;BMP_temperature;BMP_pressure;BME280_temperature;BME280_humidity;BME280_pressure;Samples;Min_cycle;Max_cycle;Signal;HPM_P1;HPM_P2
2022/04/09 00:00:23;;;;;;;4.95;2.00;;;;;;;;;;5013169;28;20124;-41
2022/04/09 00:02:49;;;;;;;2.58;1.92;;;;;;;;;;5013145;28;20098;-42
2022/04/09 00:05:15;;;;;;;2.47;1.98;;;;;;;;;;5012760;28;20430;-44
2022/04/09 00:07:41;;;;;;;3.60;2.00;;;;;;;;;;5013356;28;20079;-41
2022/04/09 00:10:09;;;;;;;3.80;2.20;;;;;;;;;;5013312;28;20033;-41
2022/04/09 00:12:35;;;;;;;3.15;1.90;;;;;;;;;;5012406;28;20446;-42
2022/04/09 00:15:02;;;;;;;4.18;2.00;;;;;;;;;;5013109;28;20036;-41
2022/04/09 00:17:27;;;;;;;8.38;2.13;;;;;;;;;;5013071;28;20421;-42
2022/04/09 00:19:53;;;;;;;4.80;2.17;;;;;;;;;;5012919;28;20029;-41
2022/04/09 00:22:19;;;;;;;5.43;2.53;;;;;;;;;;5012854;28;20493;-42
2022/04/09 00:24:44;;;;;;;5.60;2.60;;;;;;;;;;5013110;28;20414;-41
2022/04/09 00:27:10;;;;;;;3.55;2.22;;;;;;;;;;5012954;28;20025;-43
2022/04/09 00:29:35;;;;;;;8.23;2.40;;;;;;;;;;5012621;28;20029;-42
2022/04/09 00:32:02;;;;;;;5.20;2.50;;;;;;;;;;5013066;28;20037;-42
2022/04/09 00:34:28;;;;;;;4.22;2.42;;;;;;;;;;5012584;28;20087;-41
2022/04/09 00:36:53;;;;;;;4.50;2.42;;;;;;;;;;5013021;28;20113;-41
2022/04/09 00:39:18;;;;;;;3.95;1.65;;;;;;;;;;5012669;28;20485;-44
2022/04/09 00:41:47;;;;;;;1.42;1.33;;;;;;;;;;5012649;28;20026;-42
2022/04/09 00:44:17;;;;;;;6.20;1.92;;;;;;;;;;5012584;28;20030;-41
2022/04/09 00:46:44;;;;;;;2.85;1.80;;;;;;;;;;5012896;28;20030;-41
2022/04/09 00:49:10;;;;;;;2.15;1.77;;;;;;;;;;5012671;28;20030;-41
2022/04/09 00:51:38;;;;;;;2.55;1.40;;;;;;;;;;5012446;28;20529;-41
2022/04/09 00:54:05;;;;;;;1.58;1.48;;;;;;;;;;5012128;28;20104;-40
2022/04/09 00:56:33;;;;;;;2.15;1.30;;;;;;;;;;5012354;28;20052;-40
2022/04/09 00:59:02;;;;;;;0.60;0.60;;;;;;;;;;5012474;28;20489;-40
2022/04/09 01:01:32;;;;;;;0.90;0.90;;;;;;;;;;5012718;28;20044;-41
2022/04/09 01:03:58;;;;;;;1.35;0.93;;;;;;;;;;5012394;28;20038;-40
2022/04/09 01:06:23;;;;;;;1.08;0.93;;;;;;;;;;5012793;28;20055;-40
2022/04/09 01:08:49;;;;;;;2.40;1.63;;;;;;;;;;5012378;28;20076;-41
2022/04/09 01:11:15;;;;;;;2.90;2.63;;;;;;;;;;5012651;28;20030;-41
2022/04/09 01:13:41;;;;;;;9.13;3.08;;;;;;;;;;5012371;28;20100;-42
2022/04/09 01:16:08;;;;;;;5.88;3.53;;;;;;;;;;5015849;28;20033;-42
2022/04/09 01:18:34;;;;;;;3.58;2.25;;;;;;;;;;5016136;28;20053;-41
2022/04/09 01:21:01;;;;;;;2.85;2.22;;;;;;;;;;5015820;28;20065;-39
2022/04/09 01:23:27;;;;;;;3.25;2.53;;;;;;;;;;5016372;28;20050;-40
2022/04/09 01:25:57;;;;;;;6.00;1.30;;;;;;;;;;5016307;28;20020;-40
2022/04/09 01:28:22;;;;;;;3.75;1.13;;;;;;;;;;5015248;28;20050;-41
2022/04/09 01:30:48;;;;;;;1.05;0.90;;;;;;;;;;5014765;28;20061;-41
2022/04/09 01:33:18;;;;;;;1.02;0.98;;;;;;;;;;5014843;28;20026;-42
2022/04/09 01:35:44;;;;;;;2.20;1.13;;;;;;;;;;5015013;28;20040;-41
2022/04/09 01:38:10;;;;;;;3.22;1.92;;;;;;;;;;5015506;28;20025;-42
2022/04/09 01:40:36;;;;;;;1.50;1.40;;;;;;;;;;5014720;28;20128;-42
2022/04/09 01:43:01;;;;;;;1.40;1.30;;;;;;;;;;5015322;28;20040;-40
2022/04/09 01:45:30;;;;;;;2.70;1.65;;;;;;;;;;5016054;28;20037;-40
2022/04/09 01:47:56;;;;;;;1.63;1.52;;;;;;;;;;5015976;28;20026;-42
2022/04/09 01:50:21;;;;;;;1.60;1.50;;;;;;;;;;5015954;28;20417;-41
2022/04/09 01:52:47;;;;;;;1.35;1.25;;;;;;;;;;5015449;28;20022;-40
2022/04/09 01:55:13;;;;;;;2.47;1.70;;;;;;;;;;5015667;28;20066;-40
2022/04/09 01:57:39;;;;;;;2.53;1.52;;;;;;;;;;5015782;28;20041;-42
2022/04/09 02:00:07;;;;;;;7.80;2.97;;;;;;;;;;5015663;28;20364;-41
2022/04/09 02:02:33;;;;;;;2.03;1.70;;;;;;;;;;5015675;28;20036;-43
2022/04/09 02:04:58;;;;;;;1.17;1.10;;;;;;;;;;5015368;28;20022;-40
2022/04/09 02:07:24;;;;;;;2.05;1.20;;;;;;;;;;5015345;28;20113;-40
2022/04/09 02:09:49;;;;;;;1.63;1.35;;;;;;;;;;5015626;28;20033;-41
2022/04/09 02:12:15;;;;;;;1.50;1.40;;;;;;;;;;5015234;28;20037;-44
2022/04/09 02:14:41;;;;;;;1.90;1.65;;;;;;;;;;5015242;28;20033;-41
2022/04/09 02:17:06;;;;;;;2.40;1.70;;;;;;;;;;5015449;28;20050;-40
2022/04/09 02:19:32;;;;;;;3.47;1.92;;;;;;;;;;5015273;28;20502;-44
2022/04/09 02:21:57;;;;;;;1.80;1.60;;;;;;;;;;5015107;28;20474;-40
2022/04/09 02:24:23;;;;;;;5.55;2.22;;;;;;;;;;5015299;28;20466;-40
2022/04/09 02:26:48;;;;;;;2.45;2.25;;;;;;;;;;5014490;28;20538;-41
2022/04/09 02:29:14;;;;;;;1.63;1.33;;;;;;;;;;5015245;28;20536;-40
2022/04/09 02:31:39;;;;;;;4.43;2.45;;;;;;;;;;5015158;28;20030;-40
2022/04/09 02:34:05;;;;;;;3.45;2.65;;;;;;;;;;5014808;28;20025;-41
2022/04/09 02:36:32;;;;;;;1.60;1.50;;;;;;;;;;5014923;28;20080;-41
2022/04/09 02:38:58;;;;;;;5.22;3.00;;;;;;;;;;5014998;28;20047;-41
2022/04/09 02:41:24;;;;;;;2.72;1.95;;;;;;;;;;5014983;28;20037;-44
2022/04/09 02:43:49;;;;;;;2.90;1.95;;;;;;;;;;5014569;28;20355;-42
2022/04/09 02:46:16;;;;;;;5.72;2.97;;;;;;;;;;5014802;28;20030;-41
2022/04/09 02:48:42;;;;;;;2.92;2.08;;;;;;;;;;5014638;28;20041;-41
2022/04/09 02:51:07;;;;;;;3.00;2.03;;;;;;;;;;5014589;28;20026;-41
2022/04/09 02:53:33;;;;;;;4.90;2.40;;;;;;;;;;5014443;28;20049;-42
2022/04/09 02:55:58;;;;;;;3.40;2.42;;;;;;;;;;5014501;28;20517;-44
2022/04/09 02:58:24;;;;;;;4.35;2.50;;;;;;;;;;5014458;28;20022;-41
2022/04/09 03:00:49;;;;;;;3.85;2.28;;;;;;;;;;5014577;28;20115;-41
2022/04/09 03:03:15;;;;;;;2.72;2.45;;;;;;;;;;5014593;28;20368;-42
2022/04/09 03:05:40;;;;;;;6.20;2.53;;;;;;;;;;5014210;28;20044;-40
2022/04/09 03:08:06;;;;;;;3.65;2.47;;;;;;;;;;5014279;28;20116;-40
2022/04/09 03:10:31;;;;;;;2.35;2.05;;;;;;;;;;5014464;28;20113;-40
2022/04/09 03:12:58;;;;;;;4.15;3.13;;;;;;;;;;5014101;28;20417;-40
2022/04/09 03:15:23;;;;;;;3.50;2.50;;;;;;;;;;5014102;28;20084;-41
2022/04/09 03:17:49;;;;;;;3.30;2.10;;;;;;;;;;5014235;28;20026;-41
2022/04/09 03:20:15;;;;;;;5.97;2.67;;;;;;;;;;5014195;28;20061;-41
2022/04/09 03:22:45;;;;;;;5.53;3.20;;;;;;;;;;5014197;28;20463;-42
2022/04/09 03:25:11;;;;;;;4.75;3.30;;;;;;;;;;5014190;28;20129;-42
2022/04/09 03:27:37;;;;;;;3.08;2.53;;;;;;;;;;5014125;28;20034;-40
2022/04/09 03:30:03;;;;;;;3.28;2.30;;;;;;;;;;5013820;28;20359;-40
2022/04/09 03:32:28;;;;;;;1.63;1.45;;;;;;;;;;5014016;28;20029;-44
2022/04/09 03:34:53;;;;;;;3.28;2.30;;;;;;;;;;5014069;28;20179;-42
2022/04/09 03:37:19;;;;;;;3.25;2.65;;;;;;;;;;5013795;28;20021;-40
2022/04/09 03:39:45;;;;;;;2.55;2.15;;;;;;;;;;4995445;28;20038;-42
2022/04/09 03:42:10;;;;;;;2.65;1.95;;;;;;;;;;5013595;28;20445;-41
2022/04/09 03:44:35;;;;;;;2.78;2.13;;;;;;;;;;5013631;28;20030;-41
2022/04/09 03:47:05;;;;;;;2.38;2.20;;;;;;;;;;5013498;28;20117;-42
2022/04/09 03:49:31;;;;;;;3.93;2.30;;;;;;;;;;5013701;28;20063;-41
2022/04/09 03:51:57;;;;;;;3.58;2.58;;;;;;;;;;5013384;28;20060;-42
2022/04/09 03:54:23;;;;;;;2.55;2.20;;;;;;;;;;5013271;28;20502;-40
2022/04/09 03:56:49;;;;;;;1.80;1.70;;;;;;;;;;4996060;28;20422;-40
2022/04/09 03:59:15;;;;;;;2.00;1.90;;;;;;;;;;5013232;28;20026;-41
2022/04/09 04:01:43;;;;;;;2.47;2.28;;;;;;;;;;4995789;28;20466;-41
2022/04/09 04:04:10;;;;;;;7.32;3.08;;;;;;;;;;5013480;28;20137;-41
2022/04/09 04:06:36;;;;;;;2.45;2.00;;;;;;;;;;5013253;28;20022;-41
2022/04/09 04:09:03;;;;;;;3.60;2.00;;;;;;;;;;5013208;28;20096;-40
2022/04/09 04:11:28;;;;;;;7.40;2.47;;;;;;;;;;5013442;28;20045;-41
2022/04/09 04:13:54;;;;;;;3.78;2.58;;;;;;;;;;5013243;28;20026;-41
2022/04/09 04:16:19;;;;;;;2.80;2.00;;;;;;;;;;5013018;28;20033;-41
2022/04/09 04:18:45;;;;;;;3.60;2.35;;;;;;;;;;5013281;28;20061;-41
2022/04/09 04:21:10;;;;;;;5.32;2.13;;;;;;;;;;5012919;28;20042;-42
2022/04/09 04:23:36;;;;;;;4.40;3.30;;;;;;;;;;5012799;28;20029;-40
2022/04/09 04:26:02;;;;;;;3.92;3.25;;;;;;;;;;5013104;28;20028;-40
2022/04/09 04:28:28;;;;;;;9.57;5.50;;;;;;;;;;5012921;28;20026;-42
2022/04/09 04:30:53;;;;;;;6.85;5.43;;;;;;;;;;5012987;28;20026;-42
2022/04/09 04:33:18;;;;;;;6.15;4.95;;;;;;;;;;5013055;28;20044;-42
2022/04/09 04:35:44;;;;;;;9.70;5.13;;;;;;;;;;5012661;28;20419;-40
2022/04/09 04:38:11;;;;;;;7.20;6.15;;;;;;;;;;5012710;28;20036;-43
2022/04/09 04:40:37;;;;;;;14.85;5.60;;;;;;;;;;5012600;28;20441;-40
2022/04/09 04:43:02;;;;;;;6.00;5.07;;;;;;;;;;5012737;28;20026;-41
2022/04/09 04:45:29;;;;;;;9.23;5.47;;;;;;;;;;5012530;28;20022;-40
2022/04/09 04:47:56;;;;;;;4.75;4.07;;;;;;;;;;5012582;28;20529;-41
2022/04/09 04:50:21;;;;;;;4.95;2.78;;;;;;;;;;5012466;28;20029;-42
2022/04/09 04:52:47;;;;;;;2.85;2.63;;;;;;;;;;5012681;28;20026;-41
2022/04/09 04:55:14;;;;;;;7.40;3.20;;;;;;;;;;5012605;28;20065;-42
2022/04/09 04:57:47;;;;;;;5.80;3.58;;;;;;;;;;5012720;28;20029;-41
2022/04/09 05:00:17;;;;;;;8.27;5.38;;;;;;;;;;5012695;28;20370;-45
2022/04/09 05:02:43;;;;;;;5.03;4.05;;;;;;;;;;5012738;28;20030;-42
2022/04/09 05:05:09;;;;;;;9.48;4.40;;;;;;;;;;5012403;28;20034;-44
2022/04/09 05:07:38;;;;;;;5.75;4.13;;;;;;;;;;5012619;28;20148;-42
2022/04/09 05:10:06;;;;;;;7.22;3.83;;;;;;;;;;5012323;28;20022;-42
2022/04/09 05:12:33;;;;;;;4.82;3.70;;;;;;;;;;5012675;28;20034;-40
2022/04/09 05:14:59;;;;;;;5.53;3.05;;;;;;;;;;5012328;28;20051;-40
2022/04/09 05:17:24;;;;;;;4.60;2.85;;;;;;;;;;5012512;28;20033;-41
2022/04/09 05:19:50;;;;;;;4.00;2.03;;;;;;;;;;5012422;28;20510;-40
2022/04/09 05:22:15;;;;;;;4.75;2.95;;;;;;;;;;5012487;28;20038;-42
2022/04/09 05:24:41;;;;;;;8.73;2.55;;;;;;;;;;5012288;28;20394;-41
2022/04/09 05:27:06;;;;;;;2.55;1.25;;;;;;;;;;5012507;28;20481;-40
2022/04/09 05:29:32;;;;;;;3.80;1.83;;;;;;;;;;5012376;28;20522;-40
2022/04/09 05:31:59;;;;;;;1.73;1.23;;;;;;;;;;5012479;28;20502;-43
2022/04/09 05:34:25;;;;;;;1.65;1.27;;;;;;;;;;5012389;28;20029;-40
2022/04/09 05:36:50;;;;;;;1.67;1.10;;;;;;;;;;5012427;28;20378;-40
2022/04/09 05:39:17;;;;;;;7.22;2.17;;;;;;;;;;5012273;28;20386;-41
2022/04/09 05:41:43;;;;;;;2.83;1.60;;;;;;;;;;5012055;28;20118;-44
2022/04/09 05:44:09;;;;;;;1.85;1.08;;;;;;;;;;5012344;28;20026;-43
2022/04/09 05:46:35;;;;;;;1.67;1.27;;;;;;;;;;5012135;28;20363;-41
2022/04/09 05:49:00;;;;;;;7.07;2.40;;;;;;;;;;5012230;28;20427;-43
2022/04/09 05:51:26;;;;;;;5.70;1.70;;;;;;;;;;5012020;28;20080;-41
2022/04/09 05:53:51;;;;;;;1.90;1.17;;;;;;;;;;5011852;28;20050;-40
2022/04/09 05:56:17;;;;;;;1.77;1.52;;;;;;;;;;5012192;28;20034;-40
2022/04/09 05:58:42;;;;;;;3.17;1.58;;;;;;;;;;5011998;28;20097;-41
2022/04/09 06:01:08;;;;;;;2.20;1.55;;;;;;;;;;5012138;28;20044;-41
2022/04/09 06:03:34;;;;;;;5.95;1.77;;;;;;;;;;5015345;28;20061;-42
2022/04/09 06:06:00;;;;;;;6.00;1.67;;;;;;;;;;5015287;28;20485;-41
2022/04/09 06:08:26;;;;;;;6.72;1.58;;;;;;;;;;5015256;28;20033;-41
2022/04/09 06:10:51;;;;;;;0.85;0.57;;;;;;;;;;5015428;28;20026;-40
2022/04/09 06:13:17;;;;;;;4.53;0.95;;;;;;;;;;5015573;28;20032;-41
2022/04/09 06:15:42;;;;;;;1.25;0.90;;;;;;;;;;4998046;28;20026;-42
2022/04/09 06:18:10;;;;;;;1.15;0.90;;;;;;;;;;5015215;28;20033;-41
2022/04/09 06:20:36;;;;;;;1.20;0.77;;;;;;;;;;5015441;28;20076;-43
2022/04/09 06:23:01;;;;;;;0.40;0.40;;;;;;;;;;5015103;28;20397;-43
2022/04/09 06:25:28;;;;;;;1.30;0.63;;;;;;;;;;5014988;28;20033;-41
2022/04/09 06:27:53;;;;;;;0.50;0.50;;;;;;;;;;5014749;28;20028;-40
2022/04/09 06:30:19;;;;;;;0.88;0.80;;;;;;;;;;5014896;28;20029;-40
2022/04/09 06:32:44;;;;;;;2.08;1.95;;;;;;;;;;5015149;28;20109;-40
2022/04/09 06:35:10;;;;;;;0.82;0.82;;;;;;;;;;5015065;28;20632;-40
2022/04/09 06:37:39;;;;;;;1.27;0.90;;;;;;;;;;5014614;28;20421;-40
2022/04/09 06:40:07;;;;;;;0.82;0.77;;;;;;;;;;5014545;28;20049;-41
2022/04/09 06:42:33;;;;;;;1.05;0.88;;;;;;;;;;5014471;28;20482;-43
2022/04/09 06:45:00;;;;;;;0.82;0.70;;;;;;;;;;5014650;28;20022;-41
2022/04/09 06:47:25;;;;;;;1.00;0.90;;;;;;;;;;5014489;28;20022;-40
2022/04/09 06:49:51;;;;;;;2.22;0.80;;;;;;;;;;5014380;28;20072;-42
2022/04/09 06:52:16;;;;;;;6.13;0.90;;;;;;;;;;5014432;28;20026;-41
2022/04/09 06:54:42;;;;;;;0.90;0.90;;;;;;;;;;5014330;28;20046;-40
2022/04/09 06:57:07;;;;;;;1.20;0.70;;;;;;;;;;5014435;28;20566;-41
2022/04/09 06:59:33;;;;;;;0.70;0.70;;;;;;;;;;5014280;28;20032;-40
2022/04/09 07:01:58;;;;;;;1.95;0.90;;;;;;;;;;5013888;28;20029;-41
2022/04/09 07:04:24;;;;;;;0.75;0.60;;;;;;;;;;5014073;28;20533;-40
2022/04/09 07:06:49;;;;;;;0.77;0.77;;;;;;;;;;5014002;28;20022;-40
2022/04/09 07:09:15;;;;;;;1.65;0.93;;;;;;;;;;5013618;28;20474;-40
2022/04/09 07:11:40;;;;;;;0.73;0.68;;;;;;;;;;5011242;28;20025;-40
2022/04/09 07:14:06;;;;;;;0.52;0.52;;;;;;;;;;5013321;28;20378;-40
2022/04/09 07:16:31;;;;;;;1.25;1.02;;;;;;;;;;4996086;28;20032;-40
2022/04/09 07:18:57;;;;;;;0.82;0.70;;;;;;;;;;5013859;28;20109;-45
2022/04/09 07:21:22;;;;;;;1.52;1.08;;;;;;;;;;5014053;28;20030;-45
2022/04/09 07:23:48;;;;;;;0.73;0.50;;;;;;;;;;5013073;28;20034;-40
2022/04/09 07:26:15;;;;;;;0.77;0.50;;;;;;;;;;5012478;28;20022;-44
2022/04/09 07:28:41;;;;;;;0.47;0.47;;;;;;;;;;5012444;28;20030;-42
2022/04/09 07:31:06;;;;;;;0.63;0.63;;;;;;;;;;5012607;28;20354;-45
2022/04/09 07:33:32;;;;;;;2.50;0.60;;;;;;;;;;5012566;28;20033;-46
2022/04/09 07:35:57;;;;;;;0.70;0.52;;;;;;;;;;5012334;28;20099;-42
2022/04/09 07:38:23;;;;;;;0.70;0.70;;;;;;;;;;5012375;28;20028;-41
2022/04/09 07:40:49;;;;;;;1.25;0.70;;;;;;;;;;5012497;28;20057;-41
2022/04/09 07:43:14;;;;;;;2.20;1.10;;;;;;;;;;5012199;28;20096;-41
2022/04/09 07:45:40;;;;;;;0.50;0.50;;;;;;;;;;5012345;28;20042;-40
2022/04/09 07:48:06;;;;;;;1.45;0.50;;;;;;;;;;5012054;28;20072;-40
2022/04/09 07:50:33;;;;;;;0.82;0.73;;;;;;;;;;5012295;28;20476;-41
2022/04/09 07:52:59;;;;;;;0.65;0.65;;;;;;;;;;5011995;28;20092;-41
2022/04/09 07:55:25;;;;;;;1.00;0.63;;;;;;;;;;5012007;28;20543;-41
2022/04/09 07:57:51;;;;;;;0.85;0.85;;;;;;;;;;5011875;28;20022;-41
2022/04/09 08:00:18;;;;;;;1.52;1.20;;;;;;;;;;5012125;28;20026;-46
2022/04/09 08:02:44;;;;;;;2.05;1.23;;;;;;;;;;4994243;28;20028;-41
2022/04/09 08:05:10;;;;;;;0.85;0.85;;;;;;;;;;5012036;28;20026;-41
2022/04/09 08:07:40;;;;;;;1.50;1.30;;;;;;;;;;5012200;28;20026;-46
2022/04/09 08:10:06;;;;;;;1.20;1.10;;;;;;;;;;5011902;28;20029;-45
2022/04/09 08:12:32;;;;;;;3.28;1.10;;;;;;;;;;5011856;28;20420;-41
2022/04/09 08:14:58;;;;;;;1.77;1.10;;;;;;;;;;5011961;28;20049;-41
2022/04/09 08:17:23;;;;;;;1.75;1.50;;;;;;;;;;5011864;28;20029;-43
2022/04/09 08:19:49;;;;;;;1.20;0.90;;;;;;;;;;5012717;28;20068;-43
2022/04/09 08:22:16;;;;;;;2.90;1.48;;;;;;;;;;5013213;28;20381;-37
2022/04/09 08:24:42;;;;;;;1.50;1.17;;;;;;;;;;4993528;28;20030;-38
2022/04/09 08:27:10;;;;;;;1.40;1.20;;;;;;;;;;5011525;28;20359;-38
2022/04/09 08:29:36;;;;;;;1.83;1.33;;;;;;;;;;5011428;28;20069;-41
2022/04/09 08:32:04;;;;;;;2.33;1.40;;;;;;;;;;5011330;28;20073;-38
2022/04/09 08:34:33;;;;;;;1.48;1.38;;;;;;;;;;5011528;28;20375;-38
2022/04/09 08:36:59;;;;;;;1.23;1.13;;;;;;;;;;5011590;28;20025;-38
2022/04/09 08:39:25;;;;;;;1.48;1.38;;;;;;;;;;5011168;28;20025;-39
2022/04/09 08:41:52;;;;;;;2.13;1.40;;;;;;;;;;5011179;28;20026;-39
2022/04/09 08:44:18;;;;;;;2.38;1.42;;;;;;;;;;4993983;28;20119;-41
2022/04/09 08:46:46;;;;;;;1.48;1.17;;;;;;;;;;5011100;28;20026;-41
2022/04/09 08:49:12;;;;;;;1.83;1.40;;;;;;;;;;5011213;28;20108;-38
2022/04/09 08:51:38;;;;;;;1.10;1.00;;;;;;;;;;5011273;28;20121;-40
2022/04/09 08:54:04;;;;;;;1.30;1.20;;;;;;;;;;5010933;28;20041;-38
2022/04/09 08:56:35;;;;;;;1.20;1.00;;;;;;;;;;5012333;28;20044;-43
2022/04/09 08:59:04;;;;;;;1.45;1.17;;;;;;;;;;5012719;28;20030;-40
2022/04/09 09:01:31;;;;;;;1.23;1.03;;;;;;;;;;5012354;28;20076;-41
2022/04/09 09:03:57;;;;;;;1.42;0.80;;;;;;;;;;5012612;28;20029;-39
2022/04/09 09:06:34;;;;;;;0.80;0.80;;;;;;;;;;5011997;28;20030;-40
2022/04/09 09:09:05;;;;;;;3.97;0.77;;;;;;;;;;5012525;28;20042;-41
2022/04/09 09:11:44;;;;;;;0.80;0.80;;;;;;;;;;5011538;28;20470;-39
2022/04/09 09:14:10;;;;;;;2.53;0.80;;;;;;;;;;5012312;28;20512;-43
2022/04/09 09:16:35;;;;;;;1.80;0.70;;;;;;;;;;5012295;28;20034;-40
2022/04/09 09:19:06;;;;;;;1.00;0.90;;;;;;;;;;5012578;28;20037;-38
2022/04/09 09:21:32;;;;;;;0.70;0.70;;;;;;;;;;5012258;28;20073;-40
2022/04/09 09:24:06;;;;;;;0.77;0.77;;;;;;;;;;5012264;28;20050;-38
2022/04/09 09:26:35;;;;;;;1.40;0.80;;;;;;;;;;5011184;28;20025;-40
2022/04/09 09:29:00;;;;;;;0.88;0.88;;;;;;;;;;5011806;28;20022;-40
2022/04/09 09:31:45;;;;;;;1.90;1.00;;;;;;;;;;5011452;28;20110;-38
2022/04/09 09:34:16;;;;;;;3.83;1.17;;;;;;;;;;5008629;28;20363;-41
2022/04/09 09:36:43;;;;;;;4.60;1.38;;;;;;;;;;5014253;28;20017;-39
2022/04/09 09:39:11;;;;;;;1.20;1.00;;;;;;;;;;5012978;28;20022;-38
2022/04/09 09:41:53;;;;;;;1.27;0.95;;;;;;;;;;5015441;28;20072;-42
2022/04/09 09:44:24;;;;;;;1.17;1.08;;;;;;;;;;5013871;28;20030;-40
2022/04/09 09:46:51;;;;;;;1.95;1.30;;;;;;;;;;5013338;28;20029;-38
2022/04/09 09:49:19;;;;;;;2.53;1.83;;;;;;;;;;5015647;28;20042;-44
2022/04/09 09:52:02;;;;;;;1.92;1.60;;;;;;;;;;5015753;28;20033;-39
2022/04/09 09:54:27;;;;;;;2.83;2.00;;;;;;;;;;5014791;28;20060;-41
2022/04/09 09:56:53;;;;;;;2.85;2.15;;;;;;;;;;5012963;28;20030;-38
2022/04/09 09:59:21;;;;;;;6.38;3.88;;;;;;;;;;5012848;28;20029;-41
2022/04/09 10:01:47;;;;;;;8.48;4.28;;;;;;;;;;5013795;28;20040;-43
2022/04/09 10:04:13;;;;;;;11.90;4.90;;;;;;;;;;5014120;28;20030;-40
2022/04/09 10:06:42;;;;;;;6.40;3.75;;;;;;;;;;5015305;28;20520;-39
2022/04/09 10:09:09;;;;;;;4.25;2.75;;;;;;;;;;5014964;28;20025;-41
2022/04/09 10:11:49;;;;;;;4.75;2.60;;;;;;;;;;5014487;28;20508;-41
2022/04/09 10:14:21;;;;;;;2.63;1.83;;;;;;;;;;5014349;28;20030;-40
2022/04/09 10:16:49;;;;;;;1.85;1.35;;;;;;;;;;5015490;28;20029;-40
2022/04/09 10:19:17;;;;;;;4.28;1.70;;;;;;;;;;5014865;28;20105;-42
2022/04/09 10:21:46;;;;;;;2.60;1.88;;;;;;;;;;5014680;28;20061;-40
2022/04/09 10:24:25;;;;;;;1.48;1.35;;;;;;;;;;4998033;28;20038;-39
2022/04/09 10:26:53;;;;;;;1.55;1.20;;;;;;;;;;5015100;28;20248;-41
2022/04/09 10:29:18;;;;;;;1.27;1.13;;;;;;;;;;5015026;28;20018;-41
2022/04/09 10:31:51;;;;;;;0.95;0.90;;;;;;;;;;5015279;28;20030;-40
2022/04/09 10:34:17;;;;;;;0.98;0.70;;;;;;;;;;5014887;28;20060;-41
2022/04/09 10:36:42;;;;;;;3.65;1.27;;;;;;;;;;5014876;28;20496;-42
2022/04/09 10:39:23;;;;;;;0.50;0.50;;;;;;;;;;5015141;28;20053;-43
2022/04/09 10:41:49;;;;;;;;;;;;;;;;;;5015227;28;20361;-41
2022/04/09 10:44:51;;;;;;;0.77;0.70;;;;;;;;;;5014688;28;19937;-42
2022/04/09 10:47:18;;;;;;;0.93;0.63;;;;;;;;;;5014373;28;20029;-43
2022/04/09 10:50:01;;;;;;;3.63;0.80;;;;;;;;;;5014077;28;20053;-43
2022/04/09 10:52:30;;;;;;;0.68;0.60;;;;;;;;;;5014102;28;20057;-44
2022/04/09 10:55:22;;;;;;;1.85;0.90;;;;;;;;;;5014254;28;20053;-39
2022/04/09 10:57:50;;;;;;;1.88;0.90;;;;;;;;;;5014367;28;20482;-40
2022/04/09 11:00:26;;;;;;;3.60;1.00;;;;;;;;;;5009641;28;20065;-40
2022/04/09 11:03:28;;;;;;;2.45;1.02;;;;;;;;;;5012755;28;20490;-40
2022/04/09 11:06:32;;;;;;;0.90;0.90;;;;;;;;;;5014192;28;20371;-43
2022/04/09 11:08:58;;;;;;;2.10;1.30;;;;;;;;;;5014261;28;20367;-41
2022/04/09 11:11:27;;;;;;;1.13;1.02;;;;;;;;;;5014263;28;20022;-40
2022/04/09 11:13:53;;;;;;;1.60;1.33;;;;;;;;;;5014385;28;20117;-42
2022/04/09 11:16:20;;;;;;;1.67;1.42;;;;;;;;;;5013861;28;20022;-41
2022/04/09 11:18:47;;;;;;;3.58;1.85;;;;;;;;;;5013845;28;20030;-39
2022/04/09 11:21:12;;;;;;;2.05;1.65;;;;;;;;;;5013600;28;20029;-41
2022/04/09 11:23:38;;;;;;;2.80;1.70;;;;;;;;;;5011518;28;20026;-40
2022/04/09 11:26:03;;;;;;;1.88;1.77;;;;;;;;;;5010174;28;20034;-42
2022/04/09 11:28:38;;;;;;;2.25;1.98;;;;;;;;;;5013495;28;20370;-40
2022/04/09 11:31:05;;;;;;;2.58;2.33;;;;;;;;;;5013691;28;20056;-40
2022/04/09 11:33:31;;;;;;;3.72;2.95;;;;;;;;;;5012462;28;20034;-42
2022/04/09 11:35:58;;;;;;;4.88;2.88;;;;;;;;;;5010772;28;20036;-41
2022/04/09 11:38:24;;;;;;;4.72;2.92;;;;;;;;;;5013071;28;20383;-43
2022/04/09 11:40:50;;;;;;;3.55;2.97;;;;;;;;;;5013029;28;20036;-42
2022/04/09 11:43:18;;;;;;;5.95;2.95;;;;;;;;;;5012762;28;20487;-42
2022/04/09 11:45:44;;;;;;;3.05;2.60;;;;;;;;;;5011533;28;20026;-40
2022/04/09 11:48:19;;;;;;;2.50;2.30;;;;;;;;;;5011033;28;20110;-38
2022/04/09 11:50:45;;;;;;;3.50;2.83;;;;;;;;;;4991451;28;20100;-39
2022/04/09 11:53:16;;;;;;;2.70;2.50;;;;;;;;;;5010942;28;20057;-40
2022/04/09 11:55:44;;;;;;;3.22;2.78;;;;;;;;;;5011316;28;20040;-40
2022/04/09 11:58:11;;;;;;;2.55;2.35;;;;;;;;;;5012045;28;20096;-41
2022/04/09 12:00:41;;;;;;;3.78;2.60;;;;;;;;;;5011152;28;20112;-39
2022/04/09 12:03:07;;;;;;;2.20;2.05;;;;;;;;;;5010502;28;20880;-40
2022/04/09 12:05:39;;;;;;;2.15;1.95;;;;;;;;;;5010879;28;20030;-42
2022/04/09 12:08:11;;;;;;;2.42;2.22;;;;;;;;;;5010649;28;20421;-40
2022/04/09 12:11:10;;;;;;;2.40;2.20;;;;;;;;;;5011402;28;20095;-39
2022/04/09 12:13:37;;;;;;;2.65;2.35;;;;;;;;;;4995770;28;20042;-40
2022/04/09 12:16:14;;;;;;;3.33;3.03;;;;;;;;;;5010820;28;20039;-40
2022/04/09 12:18:40;;;;;;;3.22;2.80;;;;;;;;;;5009197;28;20021;-40
2022/04/09 12:21:20;;;;;;;4.75;2.95;;;;;;;;;;5011405;28;20634;-41
2022/04/09 12:23:46;;;;;;;13.75;2.72;;;;;;;;;;5010968;28;20096;-42
2022/04/09 12:26:22;;;;;;;4.82;2.70;;;;;;;;;;5010482;28;20564;-42
2022/04/09 12:29:08;;;;;;;3.70;2.80;;;;;;;;;;5011246;28;20021;-39
2022/04/09 12:31:38;;;;;;;5.22;3.25;;;;;;;;;;5011522;28;20378;-42
2022/04/09 12:34:04;;;;;;;5.10;3.67;;;;;;;;;;5011088;28;20121;-42
2022/04/09 12:36:30;;;;;;;7.72;2.75;;;;;;;;;;5011042;28;20739;-42
2022/04/09 12:38:56;;;;;;;4.93;3.03;;;;;;;;;;5010077;28;20418;-43
2022/04/09 12:41:21;;;;;;;4.68;2.17;;;;;;;;;;5009660;28;20045;-39
2022/04/09 12:43:47;;;;;;;4.72;2.38;;;;;;;;;;5010036;28;20037;-40
2022/04/09 12:46:18;;;;;;;5.30;3.13;;;;;;;;;;5010501;28;20065;-38
2022/04/09 12:48:43;;;;;;;;;;;;;;;;;;5011156;28;20166;-38
2022/04/09 12:51:21;;;;;;;2.55;1.80;;;;;;;;;;5010901;28;20006;-38
2022/04/09 12:53:48;;;;;;;2.45;1.20;;;;;;;;;;5008419;28;20046;-41
2022/04/09 12:56:16;;;;;;;3.45;1.60;;;;;;;;;;5010316;28;20021;-39
2022/04/09 12:58:42;;;;;;;3.42;1.88;;;;;;;;;;5007519;28;20483;-41
2022/04/09 13:01:08;;;;;;;3.25;1.70;;;;;;;;;;5010098;28;20038;-37
2022/04/09 13:03:34;;;;;;;1.40;1.30;;;;;;;;;;5011078;28;20030;-41
2022/04/09 13:06:00;;;;;;;1.52;1.42;;;;;;;;;;5010766;28;20363;-39
2022/04/09 13:08:26;;;;;;;1.95;1.73;;;;;;;;;;5010846;28;20049;-38
2022/04/09 13:10:52;;;;;;;5.55;1.88;;;;;;;;;;4994867;28;20084;-44
2022/04/09 13:13:23;;;;;;;3.80;2.20;;;;;;;;;;5014628;28;20073;-39
2022/04/09 13:15:49;;;;;;;1.77;1.67;;;;;;;;;;5014822;28;20033;-38
2022/04/09 13:18:15;;;;;;;4.70;2.53;;;;;;;;;;5014706;28;20038;-39
2022/04/09 13:20:42;;;;;;;6.72;2.15;;;;;;;;;;5014721;28;20041;-39
2022/04/09 13:23:08;;;;;;;2.70;2.35;;;;;;;;;;5014117;28;20034;-37
2022/04/09 13:25:34;;;;;;;1.83;1.70;;;;;;;;;;5014505;28;20085;-38
2022/04/09 13:28:02;;;;;;;2.80;2.20;;;;;;;;;;5014369;28;20112;-37
2022/04/09 13:30:28;;;;;;;5.60;2.30;;;;;;;;;;5012948;28;20041;-38
2022/04/09 13:32:59;;;;;;;1.77;1.45;;;;;;;;;;5013746;28;20041;-38
2022/04/09 13:35:25;;;;;;;2.38;2.17;;;;;;;;;;5014470;28;20029;-37
2022/04/09 13:37:52;;;;;;;2.88;1.98;;;;;;;;;;5014453;28;20030;-38
2022/04/09 13:40:18;;;;;;;3.65;2.25;;;;;;;;;;5014461;28;20021;-39
2022/04/09 13:42:44;;;;;;;2.10;2.00;;;;;;;;;;5014243;28;20072;-40
2022/04/09 13:45:11;;;;;;;2.38;2.17;;;;;;;;;;5014356;28;20025;-40
2022/04/09 13:47:39;;;;;;;2.58;2.13;;;;;;;;;;5014544;28;20022;-38
2022/04/09 13:50:05;;;;;;;5.50;2.70;;;;;;;;;;5014021;28;20525;-37
2022/04/09 13:52:31;;;;;;;4.20;2.30;;;;;;;;;;5014183;28;20137;-39
2022/04/09 13:54:56;;;;;;;3.50;2.25;;;;;;;;;;5013636;28;20116;-38
2022/04/09 13:57:22;;;;;;;3.15;2.20;;;;;;;;;;5013417;28;20095;-37
2022/04/09 13:59:49;;;;;;;2.53;2.20;;;;;;;;;;5013775;28;20038;-38
2022/04/09 14:02:16;;;;;;;3.15;2.15;;;;;;;;;;4995930;28;20123;-38
2022/04/09 14:04:42;;;;;;;2.95;2.30;;;;;;;;;;5013360;28;20014;-40
2022/04/09 14:07:07;;;;;;;2.13;1.80;;;;;;;;;;5013305;28;20022;-38
2022/04/09 14:09:33;;;;;;;3.83;2.25;;;;;;;;;;5014289;28;20109;-39
2022/04/09 14:11:59;;;;;;;3.28;2.63;;;;;;;;;;5013795;28;20485;-38
2022/04/09 14:14:26;;;;;;;2.88;2.38;;;;;;;;;;5013619;28;20041;-39
2022/04/09 14:16:52;;;;;;;2.80;2.58;;;;;;;;;;5013354;28;20037;-38
2022/04/09 14:19:18;;;;;;;2.88;2.45;;;;;;;;;;5013549;28;20112;-37
2022/04/09 14:21:44;;;;;;;3.38;2.30;;;;;;;;;;5013492;28;20389;-41
2022/04/09 14:24:09;;;;;;;2.22;1.98;;;;;;;;;;5013575;28;20026;-40
2022/04/09 14:26:35;;;;;;;2.10;1.90;;;;;;;;;;5013804;28;20478;-41
2022/04/09 14:29:03;;;;;;;2.30;2.10;;;;;;;;;;5013442;28;20041;-40
2022/04/09 14:31:30;;;;;;;2.47;2.22;;;;;;;;;;5013800;28;20038;-41
2022/04/09 14:33:56;;;;;;;4.63;3.13;;;;;;;;;;5013389;28;20026;-40
2022/04/09 14:36:21;;;;;;;2.67;2.38;;;;;;;;;;5013234;28;20028;-39
2022/04/09 14:38:47;;;;;;;2.83;2.30;;;;;;;;;;5012672;28;20029;-41
2022/04/09 14:41:14;;;;;;;2.85;2.55;;;;;;;;;;4995236;28;20125;-39
2022/04/09 14:43:40;;;;;;;3.50;2.85;;;;;;;;;;5013471;28;20033;-39